Time;durP1;ratioP1;P1;durP2;ratioP2;P2;SDS_P1;SDS_P2;PMS_P1;PMS_P2;Temp;Humidity;BMP_temperature;BMP_pressure;BME280_temperature;BME280_humidity;BME280_pressure;Samples;Min_cycle;Max_cycle;Signal;HPM_P1;HPM_P2
2023/04/03 00:06:08;;;;;;;4.8;2.1;;;;;;;2.7;86.9;99000;;;;
2023/04/03 00:17:07;;;;;;;4.8;2.1;;;;;;;2.6;86.9;99010;;;;
2023/04/03 00:27:07;;;;;;;4.5;2;;;;;;;2.6;87;99010;;;;
2023/04/03 00:37:07;;;;;;;4.5;2;;;;;;;2.6;87.2;99010;;;;
2023/04/03 00:47:07;;;;;;;4.5;2;;;;;;;2.6;87.3;99020;;;;
2023/04/03 00:57:07;;;;;;;4.3;2.3;;;;;;;2.5;87.6;99030;;;;
2023/04/03 01:07:07;;;;;;;4.3;2.3;;;;;;;2.5;87.6;99030;;;;
2023/04/03 01:17:08;;;;;;;4.3;2.3;;;;;;;2.2;87.7;99040;;;;
2023/04/03 01:28:07;;;;;;;3.1;1.9;;;;;;;2;88.2;99050;;;;
2023/04/03 01:38:07;;;;;;;3.1;1.9;;;;;;;1.9;88.7;99050;;;;
2023/04/03 01:49:07;;;;;;;2.5;1.5;;;;;;;1.9;89;99060;;;;
2023/04/03 01:59:07;;;;;;;2.5;1.5;;;;;;;1.8;89.1;99070;;;;
2023/04/03 02:10:07;;;;;;;2.5;1.5;;;;;;;1.8;89.3;99070;;;;
2023/04/03 02:20:07;;;;;;;4.4;2.2;;;;;;;1.8;89.3;99070;;;;
2023/04/03 02:30:09;;;;;;;4.4;2.2;;;;;;;1.9;89.1;99080;;;;
2023/04/03 02:41:07;;;;;;;4.4;2.2;;;;;;;1.8;88.8;99090;;;;
2023/04/03 02:52:07;;;;;;;3;1.8;;;;;;;1.8;88.7;99080;;;;
2023/04/03 03:02:07;;;;;;;3;1.8;;;;;;;1.7;88.6;99100;;;;
2023/04/03 03:12:07;;;;;;;3;1.8;;;;;;;1.7;89.1;99100;;;;
2023/04/03 03:23:07;;;;;;;3.4;2;;;;;;;1.5;89.5;99090;;;;
2023/04/03 03:34:07;;;;;;;3.4;2;;;;;;;1.4;89.6;99100;;;;
2023/04/03 03:45:07;;;;;;;3.4;2;;;;;;;1.5;89.8;99100;;;;
2023/04/03 03:56:07;;;;;;;2.7;1.2;;;;;;;1.4;89.7;99110;;;;
2023/04/03 04:06:07;;;;;;;2.7;1.2;;;;;;;1.3;89.5;99120;;;;
2023/04/03 04:16:07;;;;;;;2.7;1.2;;;;;;;1.2;89.7;99130;;;;
2023/04/03 04:27:07;;;;;;;3.9;1.4;;;;;;;1.2;90.6;99130;;;;
2023/04/03 04:38:08;;;;;;;3.9;1.4;;;;;;;1;89.7;99140;;;;
2023/04/03 04:48:07;;;;;;;4.2;2.2;;;;;;;1;90.2;99150;;;;
2023/04/03 04:58:07;;;;;;;4.2;2.2;;;;;;;1;90.1;99150;;;;
2023/04/03 05:08:08;;;;;;;4.2;2.2;;;;;;;1;90.4;99160;;;;
2023/04/03 05:19:07;;;;;;;3.9;2;;;;;;;1.1;90.3;99170;;;;
2023/04/03 05:29:07;;;;;;;3.9;2;;;;;;;1.4;90.8;99170;;;;
2023/04/03 05:40:07;;;;;;;3.9;2;;;;;;;1.7;89.9;99180;;;;
2023/04/03 05:50:07;;;;;;;4;2.2;;;;;;;1.7;88.7;99190;;;;
2023/04/03 06:00:07;;;;;;;4;2.2;;;;;;;1.6;88.6;99200;;;;
2023/04/03 06:11:08;;;;;;;4;2.2;;;;;;;1.3;87.8;99210;;;;
2023/04/03 06:22:07;;;;;;;5.3;2.2;;;;;;;0.8;88.4;99220;;;;
2023/04/03 06:32:07;;;;;;;5.3;2.2;;;;;;;0.8;89.1;99230;;;;
2023/04/03 06:43:07;;;;;;;5.3;2.2;;;;;;;0.8;88;99240;;;;
2023/04/03 06:53:07;;;;;;;4;2;;;;;;;1;87.4;99250;;;;
2023/04/03 07:04:07;;;;;;;4;2;;;;;;;1.2;85.3;99270;;;;
2023/04/03 07:14:07;;;;;;;4;2;;;;;;;1.4;82.7;99270;;;;
2023/04/03 07:25:07;;;;;;;7.7;1.5;;;;;;;1.9;81.5;99280;;;;
2023/04/03 07:35:07;;;;;;;7.7;1.5;;;;;;;1.9;77.1;99290;;;;
2023/04/03 07:45:08;;;;;;;7.7;1.5;;;;;;;2;76.3;99300;;;;
2023/04/03 07:56:07;;;;;;;3.1;1.3;;;;;;;2;74.6;99290;;;;
2023/04/03 08:07:07;;;;;;;3.1;1.3;;;;;;;2.1;72.1;99290;;;;
2023/04/03 08:18:07;;;;;;;3.1;1.6;;;;;;;2.2;71.8;99310;;;;
2023/04/03 08:28:07;;;;;;;3.1;1.6;;;;;;;2.5;70.5;99300;;;;
2023/04/03 08:38:07;;;;;;;3.1;1.6;;;;;;;2.7;71.3;99310;;;;
2023/04/03 08:48:08;;;;;;;3.4;1.5;;;;;;;3;71.4;99340;;;;
2023/04/03 08:59:07;;;;;;;3.4;1.5;;;;;;;2.8;71;99340;;;;
2023/04/03 09:10:07;;;;;;;3.4;1.5;;;;;;;3.1;71.4;99340;;;;
2023/04/03 09:20:07;;;;;;;5;1.9;;;;;;;3;69.6;99350;;;;
2023/04/03 09:30:07;;;;;;;5;1.9;;;;;;;2.9;70;99360;;;;
2023/04/03 09:41:07;;;;;;;5;1.9;;;;;;;2.6;70.4;99370;;;;
2023/04/03 09:51:07;;;;;;;4.3;2;;;;;;;2.2;72.8;99380;;;;
2023/04/03 10:02:08;;;;;;;4.3;2;;;;;;;2.1;75.7;99400;;;;
2023/04/03 10:13:07;;;;;;;4.3;2;;;;;;;2.2;75.5;99400;;;;
2023/04/03 10:24:07;;;;;;;3.5;1.9;;;;;;;2.1;73.2;99410;;;;
2023/04/03 10:34:07;;;;;;;3.5;1.9;;;;;;;2;76.5;99410;;;;
2023/04/03 10:44:07;;;;;;;3.5;1.9;;;;;;;2.8;75.1;99400;;;;
2023/04/03 10:54:07;;;;;;;4.5;1.8;;;;;;;2.5;72.4;99410;;;;
2023/04/03 11:04:07;;;;;;;4.5;1.8;;;;;;;2.5;72.4;99400;;;;
2023/04/03 11:15:08;;;;;;;4.5;1.8;;;;;;;2.8;71;99410;;;;
2023/04/03 11:26:07;;;;;;;2.7;1.5;;;;;;;2.7;70.6;99400;;;;
2023/04/03 11:37:08;;;;;;;2.7;1.5;;;;;;;2.4;69.4;99410;;;;
2023/04/03 11:47:07;;;;;;;2.9;1.5;;;;;;;2.6;68.3;99400;;;;
2023/04/03 11:57:07;;;;;;;2.9;1.5;;;;;;;3;68.6;99400;;;;
2023/04/03 12:07:07;;;;;;;2.9;1.5;;;;;;;3.5;67.6;99390;;;;
2023/04/03 12:18:07;;;;;;;4.3;2.1;;;;;;;4.4;65.6;99390;;;;
2023/04/03 12:29:07;;;;;;;4.3;2.1;;;;;;;4.4;59.8;99390;;;;
2023/04/03 12:39:07;;;;;;;4.3;2.1;;;;;;;4.1;56.9;99390;;;;
2023/04/03 12:50:07;;;;;;;6.1;2.2;;;;;;;4.4;56.1;99390;;;;
2023/04/03 13:00:08;;;;;;;6.1;2.2;;;;;;;4.5;55.8;99390;;;;
2023/04/03 13:11:07;;;;;;;6.1;2.2;;;;;;;4.8;56.6;99390;;;;
2023/04/03 13:21:07;;;;;;;4.1;1.9;;;;;;;5.1;55.9;99380;;;;
2023/04/03 13:32:07;;;;;;;4.1;1.9;;;;;;;5.2;55.9;99370;;;;
2023/04/03 13:43:07;;;;;;;4.1;1.9;;;;;;;4.7;55;99370;;;;
2023/04/03 13:53:07;;;;;;;3.4;1.5;;;;;;;4.6;55.3;99380;;;;
2023/04/03 14:04:07;;;;;;;3.4;1.5;;;;;;;4.9;56.5;99360;;;;
2023/04/03 14:14:07;;;;;;;3.4;1.5;;;;;;;4.6;56.1;99360;;;;
2023/04/03 14:25:07;;;;;;;5.5;2.5;;;;;;;4.2;57.2;99360;;;;
2023/04/03 14:35:07;;;;;;;5.5;2.5;;;;;;;3.9;56.4;99370;;;;
2023/04/03 14:45:07;;;;;;;5.5;2.5;;;;;;;4.3;56.4;99360;;;;
2023/04/03 14:56:07;;;;;;;5.6;2.6;;;;;;;4.3;57.5;99360;;;;
2023/04/03 15:07:07;;;;;;;5.6;2.6;;;;;;;4.5;55.5;99370;;;;
2023/04/03 15:17:07;;;;;;;5.2;2.4;;;;;;;4.2;55.3;99360;;;;
2023/04/03 15:28:07;;;;;;;5.2;2.4;;;;;;;4.7;54.5;99360;;;;
2023/04/03 15:38:07;;;;;;;5.2;2.4;;;;;;;4.3;54;99350;;;;
2023/04/03 15:49:07;;;;;;;98.6;48.2;;;;;;;3.6;55.3;99360;;;;
2023/04/03 16:00:07;;;;;;;98.6;48.2;;;;;;;3.3;56.8;99360;;;;
2023/04/03 16:11:07;;;;;;;98.6;48.2;;;;;;;3.1;58.7;99350;;;;
2023/04/03 16:22:07;;;;;;;111.9;52.4;;;;;;;2.8;58.1;99360;;;;
2023/04/03 16:32:07;;;;;;;111.9;52.4;;;;;;;2.7;59.6;99360;;;;
2023/04/03 16:42:09;;;;;;;111.9;52.4;;;;;;;2.6;57.2;99350;;;;
2023/04/03 16:53:09;;;;;;;10.1;6.7;;;;;;;2.6;56.2;99360;;;;
2023/04/03 17:03:07;;;;;;;10.1;6.7;;;;;;;2.5;57.2;99370;;;;
2023/04/03 17:14:07;;;;;;;10.1;6.7;;;;;;;2.4;58.7;99380;;;;
2023/04/03 17:24:08;;;;;;;43.3;19.3;;;;;;;2.1;59.5;99380;;;;
2023/04/03 17:34:10;;;;;;;43.3;19.3;;;;;;;1.9;60.5;99390;;;;
2023/04/03 17:45:07;;;;;;;38.2;18.5;;;;;;;1.7;61.4;99400;;;;
2023/04/03 17:56:07;;;;;;;38.2;18.5;;;;;;;1.5;62.3;99410;;;;
2023/04/03 18:06:07;;;;;;;38.2;18.5;;;;;;;1.3;63.3;99410;;;;
2023/04/03 18:17:07;;;;;;;10.7;6.9;;;;;;;1.1;64.3;99410;;;;
2023/04/03 18:28:07;;;;;;;10.7;6.9;;;;;;;1;65;99420;;;;
2023/04/03 18:38:07;;;;;;;10.7;6.9;;;;;;;0.7;65.6;99430;;;;
2023/04/03 18:49:07;;;;;;;17;10.1;;;;;;;0.5;66.6;99430;;;;
2023/04/03 18:59:07;;;;;;;17;10.1;;;;;;;0.4;67.7;99420;;;;
2023/04/03 19:10:07;;;;;;;17;10.1;;;;;;;0.3;69.1;99430;;;;
2023/04/03 19:20:07;;;;;;;8;4.1;;;;;;;0.2;69.9;99430;;;;
2023/04/03 19:30:07;;;;;;;8;4.1;;;;;;;0.3;70.1;99430;;;;
2023/04/03 19:41:07;;;;;;;8;4.1;;;;;;;0.6;69.8;99430;;;;
2023/04/03 19:52:07;;;;;;;6.5;3.5;;;;;;;0.8;70.1;99430;;;;
2023/04/03 20:02:07;;;;;;;6.5;3.5;;;;;;;0.9;70.7;99430;;;;
2023/04/03 20:13:09;;;;;;;6.5;3.5;;;;;;;0.9;70.5;99430;;;;
2023/04/03 20:23:09;;;;;;;9;4.8;;;;;;;1;70.6;99430;;;;
2023/04/03 20:34:08;;;;;;;9;4.8;;;;;;;1.1;70.9;99430;;;;
2023/04/03 20:44:08;;;;;;;9;4.8;;;;;;;1.1;71.1;99440;;;;
2023/04/03 20:55:07;;;;;;;8.8;4.5;;;;;;;1.2;71.2;99440;;;;
2023/04/03 21:05:07;;;;;;;8.8;4.5;;;;;;;1.2;71.7;99440;;;;
2023/04/03 21:15:07;;;;;;;7.8;4.6;;;;;;;1.2;71.4;99450;;;;
2023/04/03 21:26:07;;;;;;;7.8;4.6;;;;;;;1.3;71.9;99450;;;;
2023/04/03 21:36:08;;;;;;;7.8;4.6;;;;;;;1.2;72;99450;;;;
2023/04/03 21:46:07;;;;;;;8.2;3.8;;;;;;;1.3;72.5;99450;;;;
2023/04/03 21:57:10;;;;;;;8.2;3.8;;;;;;;1.3;72.7;99440;;;;
2023/04/03 22:07:08;;;;;;;8.2;3.8;;;;;;;1.4;73.3;99420;;;;
2023/04/03 22:17:07;;;;;;;10.3;5.5;;;;;;;1.4;73.4;99410;;;;
2023/04/03 22:28:07;;;;;;;10.3;5.5;;;;;;;1.3;72;99390;;;;
2023/04/03 22:39:09;;;;;;;10.3;5.5;;;;;;;1.3;70.8;99370;;;;
2023/04/03 22:49:07;;;;;;;14.3;6.8;;;;;;;1.2;71.1;99350;;;;
2023/04/03 23:00:08;;;;;;;14.3;6.8;;;;;;;1.1;71.1;99340;;;;
2023/04/03 23:11:08;;;;;;;14.3;6.8;;;;;;;1;70.9;99330;;;;
2023/04/03 23:22:07;;;;;;;8.1;3.2;;;;;;;0.8;71.2;99310;;;;
2023/04/03 23:32:08;;;;;;;8.1;3.2;;;;;;;0.6;71.1;99310;;;;
2023/04/03 23:43:07;;;;;;;8.1;3.2;;;;;;;0.5;71.3;99310;;;;
2023/04/03 23:54:07;;;;;;;6.4;4.2;;;;;;;0.3;71.5;99300;;;;
